createdAt,value
2018-07-11T00:00:02.649Z,0
2018-07-11T00:01:04.266Z,0
2018-07-11T00:02:05.881Z,0
2018-07-11T00:03:07.497Z,0
2018-07-11T00:04:09.116Z,0
2018-07-11T00:05:10.735Z,0
2018-07-11T00:06:12.344Z,0
2018-07-11T00:07:13.963Z,0
2018-07-11T00:08:15.574Z,0
2018-07-11T00:09:17.193Z,0
2018-07-11T00:10:18.810Z,0
2018-07-11T00:11:20.427Z,0
2018-07-11T00:12:22.040Z,0
2018-07-11T00:13:23.656Z,0
2018-07-11T00:14:25.277Z,0
2018-07-11T00:15:26.896Z,0
2018-07-11T00:16:28.502Z,0
2018-07-11T00:17:30.120Z,0
2018-07-11T00:18:31.750Z,0
2018-07-11T00:19:33.353Z,0
2018-07-11T00:20:34.967Z,0
2018-07-11T00:21:36.584Z,0
2018-07-11T00:22:38.197Z,0
2018-07-11T00:23:39.813Z,0
2018-07-11T00:24:41.431Z,0
2018-07-11T00:25:43.047Z,0
2018-07-11T00:26:44.667Z,0
2018-07-11T00:27:46.282Z,0
2018-07-11T00:28:47.896Z,0
2018-07-11T00:29:49.514Z,0
2018-07-11T00:30:51.127Z,0
2018-07-11T00:31:52.742Z,0
2018-07-11T00:32:54.362Z,0
2018-07-11T00:33:55.981Z,0
2018-07-11T00:34:57.593Z,0
2018-07-11T00:35:59.218Z,0
2018-07-11T00:37:00.896Z,0
2018-07-11T00:38:02.451Z,0
2018-07-11T00:39:04.062Z,0
2018-07-11T00:40:05.684Z,0
2018-07-11T00:41:07.294Z,0
2018-07-11T00:42:08.908Z,0
2018-07-11T00:43:10.527Z,0
2018-07-11T00:44:12.139Z,0
2018-07-11T00:45:13.760Z,0
2018-07-11T00:46:15.378Z,0
2018-07-11T00:47:16.989Z,0
2018-07-11T00:48:18.610Z,0
2018-07-11T00:49:20.225Z,0
2018-07-11T00:50:21.842Z,0
2018-07-11T00:51:23.459Z,0
2018-07-11T00:52:25.070Z,0
2018-07-11T00:53:26.695Z,0
2018-07-11T00:54:28.314Z,0
2018-07-11T00:55:29.929Z,0
2018-07-11T00:56:31.559Z,0
2018-07-11T00:57:33.167Z,0
2018-07-11T00:58:34.784Z,0
2018-07-11T00:59:36.406Z,0
2018-07-11T01:00:38.021Z,0
2018-07-11T01:01:39.634Z,0
2018-07-11T01:02:41.251Z,0
2018-07-11T01:03:42.868Z,0
2018-07-11T01:04:44.477Z,0
2018-07-11T01:05:46.098Z,0
2018-07-11T01:06:47.709Z,0
2018-07-11T01:07:49.330Z,0
2018-07-11T01:08:50.951Z,0
2018-07-11T01:09:52.572Z,0
2018-07-11T01:10:54.184Z,0
2018-07-11T01:11:55.796Z,0
2018-07-11T01:12:57.412Z,0
2018-07-11T01:13:59.024Z,0
2018-07-11T01:15:00.644Z,0
2018-07-11T01:16:02.259Z,0
2018-07-11T01:17:03.880Z,0
2018-07-11T01:18:05.492Z,0
2018-07-11T01:19:07.110Z,0
2018-07-11T01:20:08.721Z,0
2018-07-11T01:21:10.343Z,0
2018-07-11T01:22:11.953Z,0
2018-07-11T01:23:13.568Z,0
2018-07-11T01:24:15.191Z,0
2018-07-11T01:25:16.796Z,0
2018-07-11T01:26:18.408Z,0
2018-07-11T01:27:20.022Z,0
2018-07-11T01:28:21.636Z,0
2018-07-11T01:29:23.254Z,0
2018-07-11T01:30:24.867Z,0
2018-07-11T01:31:26.492Z,0
2018-07-11T01:32:28.098Z,0
2018-07-11T01:33:29.716Z,0
2018-07-11T01:34:31.338Z,0
2018-07-11T01:35:32.961Z,0
2018-07-11T01:36:34.569Z,0
2018-07-11T01:37:36.184Z,0
2018-07-11T01:38:37.805Z,0
2018-07-11T01:39:39.417Z,0
2018-07-11T01:40:41.031Z,0
2018-07-11T01:41:42.649Z,0
2018-07-11T01:42:44.265Z,0
2018-07-11T01:43:45.879Z,0
2018-07-11T01:44:47.500Z,0
2018-07-11T01:45:49.113Z,0
2018-07-11T01:46:50.734Z,0
2018-07-11T01:47:52.347Z,0
2018-07-11T01:48:53.960Z,0
2018-07-11T01:49:55.574Z,0
2018-07-11T01:50:57.194Z,0
2018-07-11T01:51:58.812Z,0
2018-07-11T01:53:00.424Z,0
2018-07-11T01:54:02.044Z,0
2018-07-11T01:55:03.652Z,0
2018-07-11T01:56:05.267Z,0
2018-07-11T01:57:06.878Z,0
2018-07-11T01:58:08.517Z,0
2018-07-11T01:59:10.137Z,0
2018-07-11T02:00:11.755Z,0
2018-07-11T02:01:13.372Z,0
2018-07-11T02:02:14.983Z,0
2018-07-11T02:03:16.603Z,0
2018-07-11T02:04:18.223Z,0
2018-07-11T02:05:19.835Z,0
2018-07-11T02:06:21.453Z,0
2018-07-11T02:07:23.065Z,0
2018-07-11T02:08:24.680Z,0
2018-07-11T02:09:26.293Z,0
2018-07-11T02:10:27.906Z,0
2018-07-11T02:11:29.525Z,0
2018-07-11T02:12:31.152Z,0
2018-07-11T02:13:32.765Z,0
2018-07-11T02:14:34.388Z,0
2018-07-11T02:15:36.005Z,0
2018-07-11T02:16:37.622Z,0
2018-07-11T02:17:39.230Z,0
2018-07-11T02:18:40.842Z,0
2018-07-11T02:19:42.460Z,0
2018-07-11T02:20:44.073Z,0
2018-07-11T02:21:45.693Z,0
2018-07-11T02:22:47.309Z,0
2018-07-11T02:23:48.920Z,0
2018-07-11T02:24:50.534Z,0
2018-07-11T02:25:52.152Z,0
2018-07-11T02:26:53.765Z,0
2018-07-11T02:27:55.383Z,0
2018-07-11T02:28:57.005Z,0
2018-07-11T02:29:58.618Z,0
2018-07-11T02:31:00.232Z,0
2018-07-11T02:32:01.850Z,0
2018-07-11T02:33:03.460Z,0
2018-07-11T02:34:05.081Z,0
2018-07-11T02:35:06.702Z,0
2018-07-11T02:36:08.312Z,0
2018-07-11T02:37:09.930Z,0
2018-07-11T02:38:11.541Z,0
2018-07-11T02:39:13.154Z,0
2018-07-11T02:40:14.765Z,0
2018-07-11T02:41:16.380Z,0
2018-07-11T02:42:18.006Z,0
2018-07-11T02:43:19.621Z,0
2018-07-11T02:44:21.236Z,0
2018-07-11T02:45:22.858Z,0
2018-07-11T02:46:24.468Z,0
2018-07-11T02:47:26.084Z,0
2018-07-11T02:48:27.697Z,0
2018-07-11T02:49:29.313Z,0
2018-07-11T02:50:30.925Z,0
2018-07-11T02:51:32.541Z,0
2018-07-11T02:52:34.152Z,0
2018-07-11T02:53:35.760Z,0
2018-07-11T02:54:37.380Z,0
2018-07-11T02:55:39.000Z,0
2018-07-11T02:56:40.613Z,0
2018-07-11T02:57:42.224Z,0
2018-07-11T02:58:43.845Z,0
2018-07-11T02:59:45.468Z,0
2018-07-11T03:00:47.084Z,0
2018-07-11T03:01:48.700Z,0
2018-07-11T03:02:50.328Z,0
2018-07-11T03:03:52.529Z,0
2018-07-11T03:04:54.149Z,0
2018-07-11T03:05:56.297Z,0
2018-07-11T03:06:57.918Z,0
2018-07-11T03:07:59.536Z,0
2018-07-11T03:09:01.148Z,0
2018-07-11T03:10:02.779Z,0
2018-07-11T03:11:04.379Z,0
2018-07-11T03:12:06.004Z,0
2018-07-11T03:13:07.610Z,0
2018-07-11T03:14:09.232Z,0
2018-07-11T03:15:10.849Z,0
2018-07-11T03:16:12.465Z,0
2018-07-11T03:17:14.076Z,0
2018-07-11T03:18:15.692Z,5
2018-07-11T03:19:17.316Z,5
2018-07-11T03:20:18.922Z,5
2018-07-11T03:21:20.543Z,5
2018-07-11T03:22:22.159Z,5
2018-07-11T03:23:23.772Z,5
2018-07-11T03:24:25.401Z,5
2018-07-11T03:25:27.005Z,5
2018-07-11T03:26:28.625Z,5
2018-07-11T03:27:30.253Z,5
2018-07-11T03:28:31.872Z,11
2018-07-11T03:29:33.485Z,11
2018-07-11T03:30:35.101Z,11
2018-07-11T03:31:36.727Z,11
2018-07-11T03:32:38.377Z,11
2018-07-11T03:33:39.961Z,11
2018-07-11T03:34:41.577Z,11
2018-07-11T03:35:43.192Z,11
2018-07-11T03:36:44.809Z,11
2018-07-11T03:37:46.430Z,11
2018-07-11T03:38:48.045Z,11
2018-07-11T03:39:49.668Z,16
2018-07-11T03:40:51.287Z,16
2018-07-11T03:41:52.909Z,16
2018-07-11T03:42:54.526Z,16
2018-07-11T03:43:56.144Z,22
2018-07-11T03:44:57.760Z,22
2018-07-11T03:45:59.386Z,28
2018-07-11T03:47:01.001Z,28
2018-07-11T03:48:02.619Z,28
2018-07-11T03:49:04.240Z,33
2018-07-11T03:50:05.854Z,33
2018-07-11T03:51:07.478Z,33
2018-07-11T03:52:09.089Z,39
2018-07-11T03:53:10.703Z,39
2018-07-11T03:54:12.328Z,45
2018-07-11T03:55:13.945Z,45
2018-07-11T03:56:15.568Z,45
2018-07-11T03:57:17.770Z,45
2018-07-11T03:58:19.390Z,45
2018-07-11T03:59:21.005Z,50
2018-07-11T04:00:22.627Z,50
2018-07-11T04:01:24.244Z,56
2018-07-11T04:02:25.866Z,56
2018-07-11T04:03:27.485Z,61
2018-07-11T04:04:29.114Z,61
2018-07-11T04:05:30.736Z,61
2018-07-11T04:06:32.353Z,61
2018-07-11T04:07:33.969Z,56
2018-07-11T04:08:35.598Z,56
2018-07-11T04:09:37.217Z,56
2018-07-11T04:10:38.840Z,56
2018-07-11T04:11:40.458Z,61
2018-07-11T04:12:42.072Z,67
2018-07-11T04:13:43.690Z,67
2018-07-11T04:14:45.307Z,67
2018-07-11T04:15:46.925Z,73
2018-07-11T04:16:48.548Z,84
2018-07-11T04:17:50.163Z,90
2018-07-11T04:18:51.784Z,95
2018-07-11T04:19:53.408Z,101
2018-07-11T04:20:55.030Z,106
2018-07-11T04:21:56.652Z,106
2018-07-11T04:22:58.268Z,112
2018-07-11T04:23:59.893Z,118
2018-07-11T04:25:01.514Z,123
2018-07-11T04:26:03.130Z,123
2018-07-11T04:27:04.756Z,129
2018-07-11T04:28:06.377Z,135
2018-07-11T04:29:07.994Z,140
2018-07-11T04:30:09.615Z,157
2018-07-11T04:31:11.242Z,163
2018-07-11T04:32:12.855Z,163
2018-07-11T04:33:14.477Z,168
2018-07-11T04:34:16.096Z,174
2018-07-11T04:35:17.718Z,180
2018-07-11T04:36:19.340Z,180
2018-07-11T04:37:20.961Z,185
2018-07-11T04:38:22.587Z,185
2018-07-11T04:39:24.203Z,191
2018-07-11T04:40:25.828Z,196
2018-07-11T04:41:27.447Z,196
2018-07-11T04:42:29.130Z,202
2018-07-11T04:43:30.699Z,208
2018-07-11T04:44:32.318Z,208
2018-07-11T04:45:33.942Z,213
2018-07-11T04:46:35.558Z,213
2018-07-11T04:47:37.177Z,213
2018-07-11T04:48:38.795Z,213
2018-07-11T04:49:40.423Z,219
2018-07-11T04:50:42.044Z,225
2018-07-11T04:51:43.669Z,225
2018-07-11T04:52:45.349Z,230
2018-07-11T04:53:46.907Z,230
2018-07-11T04:54:48.531Z,236
2018-07-11T04:55:50.148Z,236
2018-07-11T04:56:51.773Z,236
2018-07-11T04:57:53.392Z,241
2018-07-11T04:58:55.022Z,241
2018-07-11T04:59:56.639Z,241
2018-07-11T05:00:58.251Z,247
2018-07-11T05:01:59.876Z,247
2018-07-11T05:03:01.496Z,253
2018-07-11T05:04:03.117Z,253
2018-07-11T05:05:04.737Z,241
2018-07-11T05:06:06.363Z,247
2018-07-11T05:07:07.981Z,247
2018-07-11T05:08:09.606Z,253
2018-07-11T05:09:11.225Z,253
2018-07-11T05:10:13.146Z,258
2018-07-11T05:11:14.775Z,270
2018-07-11T05:12:16.648Z,281
2018-07-11T05:13:18.249Z,298
2018-07-11T05:14:19.905Z,315
2018-07-11T05:15:21.527Z,326
2018-07-11T05:16:23.153Z,337
2018-07-11T05:17:24.773Z,348
2018-07-11T05:18:26.399Z,371
2018-07-11T05:19:28.020Z,393
2018-07-11T05:20:29.646Z,405
2018-07-11T05:21:31.268Z,410
2018-07-11T05:22:32.888Z,388
2018-07-11T05:23:34.510Z,365
2018-07-11T05:24:36.131Z,348
2018-07-11T05:25:39.869Z,331
2018-07-11T05:26:41.491Z,320
2018-07-11T05:27:43.144Z,315
2018-07-11T05:28:44.745Z,309
2018-07-11T05:29:46.370Z,303
2018-07-11T05:30:47.988Z,303
2018-07-11T05:31:49.603Z,303
2018-07-11T05:32:51.227Z,303
2018-07-11T05:33:52.854Z,298
2018-07-11T05:34:54.475Z,213
2018-07-11T05:35:56.104Z,331
2018-07-11T05:36:57.730Z,337
2018-07-11T05:37:59.348Z,343
2018-07-11T05:39:00.966Z,348
2018-07-11T05:40:02.588Z,354
2018-07-11T05:41:04.209Z,360
2018-07-11T05:42:05.829Z,365
2018-07-11T05:43:07.454Z,365
2018-07-11T05:44:09.074Z,371
2018-07-11T05:45:10.692Z,371
2018-07-11T05:46:12.317Z,376
2018-07-11T05:47:13.938Z,382
2018-07-11T05:48:15.599Z,382
2018-07-11T05:49:17.190Z,382
2018-07-11T05:50:18.810Z,388
2018-07-11T05:51:20.433Z,388
2018-07-11T05:52:22.051Z,393
2018-07-11T05:53:23.669Z,393
2018-07-11T05:54:25.289Z,393
2018-07-11T05:55:26.917Z,388
2018-07-11T05:56:28.548Z,393
2018-07-11T05:57:30.170Z,388
2018-07-11T05:58:31.794Z,388
2018-07-11T05:59:33.415Z,388
2018-07-11T06:00:35.034Z,388
2018-07-11T06:01:36.661Z,388
2018-07-11T06:02:38.310Z,393
2018-07-11T06:03:39.903Z,399
2018-07-11T06:04:41.528Z,405
2018-07-11T06:05:43.145Z,410
2018-07-11T06:06:44.768Z,421
2018-07-11T06:07:46.388Z,421
2018-07-11T06:08:48.007Z,433
2018-07-11T06:09:49.629Z,433
2018-07-11T06:10:51.257Z,438
2018-07-11T06:11:52.880Z,444
2018-07-11T06:12:54.497Z,450
2018-07-11T06:13:56.126Z,478
2018-07-11T06:14:57.744Z,1074
2018-07-11T06:15:59.371Z,1653
2018-07-11T06:17:00.992Z,1760
2018-07-11T06:18:02.622Z,1878
2018-07-11T06:19:04.248Z,1873
2018-07-11T06:20:05.866Z,1794
2018-07-11T06:21:07.494Z,1800
2018-07-11T06:22:09.114Z,1710
2018-07-11T06:23:10.737Z,1816
2018-07-11T06:24:12.365Z,1788
2018-07-11T06:25:13.985Z,1861
2018-07-11T06:26:15.610Z,2058
2018-07-11T06:27:17.236Z,2064
2018-07-11T06:28:18.861Z,2238
2018-07-11T06:29:20.483Z,2064
2018-07-11T06:30:22.112Z,1906
2018-07-11T06:31:23.735Z,1906
2018-07-11T06:32:25.363Z,1935
2018-07-11T06:33:27.003Z,2053
2018-07-11T06:34:28.611Z,2025
2018-07-11T06:35:30.241Z,2255
2018-07-11T06:36:31.862Z,2188
2018-07-11T06:37:33.484Z,2188
2018-07-11T06:38:35.117Z,2238
2018-07-11T06:39:36.742Z,2328
2018-07-11T06:40:38.383Z,2435
2018-07-11T06:41:39.997Z,2435
2018-07-11T06:42:41.623Z,2514
2018-07-11T06:43:43.248Z,2784
2018-07-11T06:44:44.875Z,2840
2018-07-11T06:45:46.502Z,2446
2018-07-11T06:46:48.137Z,2576
2018-07-11T06:47:49.822Z,2463
2018-07-11T06:48:51.393Z,1704
2018-07-11T06:49:53.022Z,967
2018-07-11T06:50:54.645Z,691
2018-07-11T06:51:56.278Z,731
2018-07-11T06:52:57.902Z,793
2018-07-11T06:53:59.532Z,866
2018-07-11T06:55:01.163Z,973
2018-07-11T06:56:02.819Z,1085
2018-07-11T06:57:04.421Z,1237
2018-07-11T06:58:06.048Z,1220
2018-07-11T06:59:07.678Z,1344
2018-07-11T07:00:09.307Z,1518
2018-07-11T07:01:10.936Z,1440
2018-07-11T07:02:12.567Z,1704
2018-07-11T07:03:14.197Z,1631
2018-07-11T07:04:15.829Z,1513
2018-07-11T07:05:17.459Z,1513
2018-07-11T07:06:19.084Z,1873
2018-07-11T07:07:20.717Z,2238
2018-07-11T07:08:22.343Z,1845
2018-07-11T07:09:23.980Z,1648
2018-07-11T07:10:25.607Z,1462
2018-07-11T07:11:27.238Z,1479
2018-07-11T07:12:28.870Z,1423
2018-07-11T07:13:30.495Z,1395
2018-07-11T07:14:32.133Z,1310
2018-07-11T07:15:33.763Z,1327
2018-07-11T07:16:35.455Z,1552
2018-07-11T07:17:37.026Z,2565
2018-07-11T07:18:38.656Z,2553
2018-07-11T07:19:40.288Z,2683
2018-07-11T07:20:41.967Z,2565
2018-07-11T07:21:43.556Z,2688
2018-07-11T07:22:45.182Z,2958
2018-07-11T07:23:46.820Z,2930
2018-07-11T07:24:48.448Z,2238
2018-07-11T07:25:50.075Z,1878
2018-07-11T07:26:51.711Z,1591
2018-07-11T07:27:53.336Z,1563
2018-07-11T07:28:54.971Z,1518
2018-07-11T07:29:56.603Z,1580
2018-07-11T07:30:58.233Z,1597
2018-07-11T07:31:59.860Z,1693
2018-07-11T07:33:01.495Z,1597
2018-07-11T07:34:03.126Z,1940
2018-07-11T07:35:04.751Z,1861
2018-07-11T07:36:06.401Z,2356
2018-07-11T07:37:08.018Z,3369
2018-07-11T07:38:09.656Z,1485
2018-07-11T07:39:11.287Z,1153
2018-07-11T07:40:12.916Z,1012
2018-07-11T07:41:14.549Z,1035
2018-07-11T07:42:16.176Z,1125
2018-07-11T07:43:17.811Z,1395
2018-07-11T07:44:19.447Z,1423
2018-07-11T07:45:21.075Z,1456
2018-07-11T07:46:22.705Z,1766
2018-07-11T07:47:24.332Z,1715
2018-07-11T07:48:25.961Z,1912
2018-07-11T07:49:27.602Z,1698
2018-07-11T07:50:29.239Z,1580
2018-07-11T07:51:30.867Z,1760
2018-07-11T07:52:32.504Z,1783
2018-07-11T07:53:34.131Z,1676
2018-07-11T07:54:35.762Z,1586
2018-07-11T07:55:37.394Z,1614
2018-07-11T07:56:39.023Z,1760
2018-07-11T07:57:40.656Z,1755
2018-07-11T07:58:42.288Z,1901
2018-07-11T07:59:43.916Z,1693
2018-07-11T08:00:45.555Z,1620
2018-07-11T08:01:47.183Z,1507
2018-07-11T08:02:48.809Z,1400
2018-07-11T08:03:50.448Z,1321
2018-07-11T08:04:52.076Z,1248
2018-07-11T08:05:53.706Z,1209
2018-07-11T08:06:55.400Z,1181
2018-07-11T08:07:56.966Z,1153
2018-07-11T08:08:58.599Z,1125
2018-07-11T08:10:00.226Z,1085
2018-07-11T08:11:01.857Z,1080
2018-07-11T08:12:03.489Z,1113
2018-07-11T08:13:05.118Z,1130
2018-07-11T08:14:06.745Z,1130
2018-07-11T08:15:08.378Z,1130
2018-07-11T08:16:10.005Z,1125
2018-07-11T08:17:11.633Z,1096
2018-07-11T08:18:13.262Z,1091
2018-07-11T08:19:14.894Z,1096
2018-07-11T08:20:16.515Z,1108
2018-07-11T08:21:18.187Z,1153
2018-07-11T08:22:19.773Z,1215
2018-07-11T08:23:21.407Z,1321
2018-07-11T08:24:23.041Z,1535
2018-07-11T08:25:24.663Z,2396
2018-07-11T08:26:26.310Z,1665
2018-07-11T08:27:27.946Z,1558
2018-07-11T08:28:29.570Z,1445
2018-07-11T08:29:31.193Z,1366
2018-07-11T08:30:32.828Z,1355
2018-07-11T08:31:34.447Z,1327
2018-07-11T08:32:36.075Z,1299
2018-07-11T08:33:37.709Z,1231
2018-07-11T08:34:39.347Z,1181
2018-07-11T08:35:40.972Z,1164
2018-07-11T08:36:42.598Z,1175
2018-07-11T08:37:44.229Z,1248
2018-07-11T08:38:45.852Z,1321
2018-07-11T08:39:47.478Z,1400
2018-07-11T08:40:49.103Z,1541
2018-07-11T08:41:50.735Z,1951
2018-07-11T08:42:52.361Z,2919
2018-07-11T08:43:53.994Z,2986
2018-07-11T08:44:55.624Z,2655
2018-07-11T08:45:57.248Z,3031
2018-07-11T08:46:58.879Z,3071
2018-07-11T08:48:00.531Z,3335
2018-07-11T08:49:02.138Z,3071
2018-07-11T08:50:03.771Z,5208
2018-07-11T08:51:05.397Z,5782
2018-07-11T08:52:07.030Z,6637
2018-07-11T08:53:08.657Z,4927
2018-07-11T08:54:10.295Z,3166
2018-07-11T08:55:11.980Z,2790
2018-07-11T08:56:13.559Z,3093
2018-07-11T08:57:15.194Z,2750
2018-07-11T08:58:16.825Z,2536
2018-07-11T08:59:18.461Z,2790
2018-07-11T09:00:20.093Z,4651
2018-07-11T09:01:21.728Z,2851
2018-07-11T09:02:23.358Z,4072
2018-07-11T09:03:24.989Z,4061
2018-07-11T09:04:26.628Z,3099
2018-07-11T09:05:28.257Z,1530
2018-07-11T09:06:29.893Z,2373
2018-07-11T09:07:31.527Z,1940
2018-07-11T09:08:33.156Z,2075
2018-07-11T09:09:34.795Z,2199
2018-07-11T09:10:36.562Z,2126
2018-07-11T09:11:38.067Z,1918
2018-07-11T09:12:39.706Z,1732
2018-07-11T09:13:41.333Z,1631
2018-07-11T09:14:42.963Z,1614
2018-07-11T09:15:44.597Z,1642
2018-07-11T09:16:46.230Z,1681
2018-07-11T09:17:47.920Z,1681
2018-07-11T09:18:49.497Z,1760
2018-07-11T09:19:51.122Z,1845
2018-07-11T09:20:52.760Z,1940
2018-07-11T09:21:55.335Z,2120
2018-07-11T09:22:56.970Z,2182
2018-07-11T09:23:58.613Z,2435
2018-07-11T09:25:00.232Z,3082
2018-07-11T09:26:01.866Z,2531
2018-07-11T09:27:03.496Z,2435
2018-07-11T09:28:05.124Z,2238
2018-07-11T09:29:06.758Z,2283
2018-07-11T09:30:08.396Z,2379
2018-07-11T09:31:10.021Z,2716
2018-07-11T09:32:11.657Z,2677
2018-07-11T09:33:13.287Z,2655
2018-07-11T09:34:14.922Z,2593
2018-07-11T09:35:16.546Z,2373
2018-07-11T09:36:18.179Z,2542
2018-07-11T09:37:19.807Z,2790
2018-07-11T09:38:21.435Z,2649
2018-07-11T09:39:23.073Z,3256
2018-07-11T09:40:24.703Z,5270
2018-07-11T09:41:26.347Z,5045
2018-07-11T09:42:27.971Z,4685
2018-07-11T09:43:29.598Z,5540
2018-07-11T09:44:31.233Z,4747
2018-07-11T09:45:32.930Z,4134
2018-07-11T09:46:34.501Z,8167
2018-07-11T09:47:36.141Z,8960
2018-07-11T09:48:37.773Z,8353
2018-07-11T09:49:39.406Z,7261
2018-07-11T09:50:41.052Z,7948
2018-07-11T09:51:42.694Z,3391
2018-07-11T09:52:44.325Z,5456
2018-07-11T09:53:45.966Z,7233
2018-07-11T09:54:47.607Z,1873
2018-07-11T09:55:49.240Z,6018
2018-07-11T09:56:50.878Z,5748
2018-07-11T09:57:52.520Z,7126
2018-07-11T09:58:54.154Z,6654
2018-07-11T09:59:55.796Z,5343
2018-07-11T10:00:57.434Z,5068
2018-07-11T10:01:59.073Z,3858
2018-07-11T10:03:00.718Z,3549
2018-07-11T10:04:02.350Z,4438
2018-07-11T10:05:04.002Z,3740
2018-07-11T10:06:05.624Z,6845
2018-07-11T10:07:07.264Z,6339
2018-07-11T10:08:08.907Z,3796
2018-07-11T10:09:10.548Z,3071
2018-07-11T10:10:12.186Z,3093
2018-07-11T10:11:13.819Z,3560
2018-07-11T10:12:15.454Z,3346
2018-07-11T10:13:17.094Z,2463
2018-07-11T10:14:18.733Z,2103
2018-07-11T10:15:20.370Z,1996
2018-07-11T10:16:22.009Z,1833
2018-07-11T10:17:23.647Z,1726
2018-07-11T10:18:25.287Z,1665
2018-07-11T10:19:26.918Z,1665
2018-07-11T10:20:28.558Z,1541
2018-07-11T10:21:30.215Z,1417
2018-07-11T10:22:31.834Z,1271
2018-07-11T10:23:33.473Z,1254
2018-07-11T10:24:35.101Z,1260
2018-07-11T10:25:36.736Z,1423
2018-07-11T10:26:38.371Z,1850
2018-07-11T10:27:40.001Z,1822
2018-07-11T10:28:41.639Z,1822
2018-07-11T10:29:43.270Z,1833
2018-07-11T10:30:44.909Z,2295
2018-07-11T10:31:46.541Z,1693
2018-07-11T10:32:48.162Z,1738
2018-07-11T10:33:49.798Z,1828
2018-07-11T10:34:51.430Z,1878
2018-07-11T10:35:53.061Z,2165
2018-07-11T10:36:54.699Z,2683
2018-07-11T10:37:56.336Z,3189
2018-07-11T10:38:57.991Z,2340
2018-07-11T10:39:59.602Z,2295
2018-07-11T10:41:01.231Z,2401
2018-07-11T10:42:02.865Z,2210
2018-07-11T10:43:04.493Z,2036
2018-07-11T10:44:06.124Z,2250
2018-07-11T10:45:07.760Z,2351
2018-07-11T10:46:09.388Z,2345
2018-07-11T10:47:11.023Z,1867
2018-07-11T10:48:12.653Z,1451
2018-07-11T10:49:14.283Z,1226
2018-07-11T10:50:15.918Z,1068
2018-07-11T10:51:17.551Z,922
2018-07-11T10:52:19.994Z,787
2018-07-11T10:53:21.623Z,691
2018-07-11T10:54:23.253Z,590
2018-07-11T10:55:24.888Z,556
2018-07-11T10:56:26.516Z,511
2018-07-11T10:57:28.204Z,444
2018-07-11T10:58:29.777Z,416
2018-07-11T10:59:31.407Z,376
2018-07-11T11:00:39.393Z,331
2018-07-11T11:01:34.744Z,331
2018-07-11T11:02:36.300Z,326
2018-07-11T11:03:37.919Z,309
2018-07-11T11:04:39.545Z,292
2018-07-11T11:05:41.176Z,286
2018-07-11T11:06:42.815Z,292
2018-07-11T11:07:44.431Z,286
2018-07-11T11:08:46.058Z,286
2018-07-11T11:09:47.686Z,303
2018-07-11T11:10:49.317Z,309
2018-07-11T11:11:50.939Z,331
2018-07-11T11:12:52.567Z,331
2018-07-11T11:13:54.197Z,348
2018-07-11T11:14:55.823Z,405
2018-07-11T11:15:57.448Z,455
2018-07-11T11:16:59.073Z,506
2018-07-11T11:18:00.698Z,579
2018-07-11T11:19:02.322Z,663
2018-07-11T11:20:03.952Z,810
2018-07-11T11:21:05.584Z,1012
2018-07-11T11:22:07.210Z,1254
2018-07-11T11:23:08.839Z,1417
2018-07-11T11:24:10.466Z,2002
2018-07-11T11:25:12.088Z,4111
2018-07-11T11:26:13.728Z,2238
2018-07-11T11:27:15.349Z,1788
2018-07-11T11:28:16.978Z,1456
2018-07-11T11:29:18.605Z,1417
2018-07-11T11:30:20.232Z,1507
2018-07-11T11:31:21.861Z,1563
2018-07-11T11:32:23.490Z,1603
2018-07-11T11:33:25.126Z,1586
2018-07-11T11:34:26.760Z,1513
2018-07-11T11:35:28.387Z,1389
2018-07-11T11:36:30.018Z,1215
2018-07-11T11:37:31.645Z,1012
2018-07-11T11:38:33.272Z,860
2018-07-11T11:39:34.901Z,798
2018-07-11T11:40:36.525Z,776
2018-07-11T11:41:38.198Z,753
2018-07-11T11:42:39.764Z,770
2018-07-11T11:43:41.364Z,759
2018-07-11T11:44:42.985Z,725
2018-07-11T11:45:44.622Z,708
2018-07-11T11:46:46.241Z,720
2018-07-11T11:47:47.876Z,759
2018-07-11T11:48:49.498Z,765
2018-07-11T11:49:51.123Z,731
2018-07-11T11:50:52.753Z,691
2018-07-11T11:51:54.373Z,658
2018-07-11T11:52:56.006Z,624
2018-07-11T11:53:57.636Z,630
2018-07-11T11:54:59.259Z,635
2018-07-11T11:56:00.882Z,590
2018-07-11T11:57:02.515Z,540
2018-07-11T11:58:04.137Z,438
2018-07-11T11:59:05.761Z,320
2018-07-11T12:00:07.384Z,219
2018-07-11T12:01:09.012Z,163
2018-07-11T12:02:10.638Z,146
2018-07-11T12:03:12.262Z,151
2018-07-11T12:04:13.891Z,168
2018-07-11T12:05:15.515Z,185
2018-07-11T12:06:17.142Z,185
2018-07-11T12:07:18.830Z,191
2018-07-11T12:08:20.389Z,202
2018-07-11T12:09:22.017Z,219
2018-07-11T12:10:23.641Z,241
2018-07-11T12:11:25.278Z,281
2018-07-11T12:12:26.902Z,309
2018-07-11T12:13:28.524Z,320
2018-07-11T12:14:30.146Z,331
2018-07-11T12:15:31.774Z,337
2018-07-11T12:16:33.396Z,326
2018-07-11T12:17:35.024Z,315
2018-07-11T12:18:36.643Z,292
2018-07-11T12:19:38.271Z,281
2018-07-11T12:20:39.900Z,264
2018-07-11T12:21:41.522Z,258
2018-07-11T12:22:43.147Z,253
2018-07-11T12:23:44.775Z,258
2018-07-11T12:24:46.394Z,275
2018-07-11T12:25:48.027Z,292
2018-07-11T12:26:49.657Z,292
2018-07-11T12:27:51.276Z,292
2018-07-11T12:28:52.897Z,292
2018-07-11T12:29:54.524Z,303
2018-07-11T12:30:56.152Z,343
2018-07-11T12:31:57.771Z,388
2018-07-11T12:32:59.395Z,371
2018-07-11T12:34:01.025Z,326
2018-07-11T12:35:02.651Z,292
2018-07-11T12:36:04.273Z,258
2018-07-11T12:37:05.895Z,236
2018-07-11T12:38:07.527Z,225
2018-07-11T12:39:09.144Z,219
2018-07-11T12:40:10.765Z,219
2018-07-11T12:41:12.384Z,219
2018-07-11T12:42:14.009Z,241
2018-07-11T12:43:15.629Z,286
2018-07-11T12:44:17.256Z,360
2018-07-11T12:45:18.884Z,405
2018-07-11T12:46:20.504Z,405
2018-07-11T12:47:22.133Z,466
2018-07-11T12:48:23.765Z,590
2018-07-11T12:49:25.391Z,652
2018-07-11T12:50:27.009Z,652
2018-07-11T12:51:28.634Z,601
2018-07-11T12:52:30.256Z,517
2018-07-11T12:53:31.888Z,461
2018-07-11T12:54:33.510Z,444
2018-07-11T12:55:35.129Z,427
2018-07-11T12:56:36.757Z,382
2018-07-11T12:57:38.380Z,343
2018-07-11T12:58:40.008Z,360
2018-07-11T12:59:41.638Z,399
2018-07-11T13:00:43.253Z,393
2018-07-11T13:01:44.883Z,388
2018-07-11T13:02:46.507Z,416
2018-07-11T13:03:48.122Z,461
2018-07-11T13:04:49.750Z,466
2018-07-11T13:05:51.373Z,472
2018-07-11T13:06:52.999Z,489
2018-07-11T13:07:54.630Z,500
2018-07-11T13:08:56.250Z,506
2018-07-11T13:09:57.869Z,500
2018-07-11T13:10:59.493Z,483
2018-07-11T13:12:01.117Z,478
2018-07-11T13:13:02.740Z,489
2018-07-11T13:14:04.366Z,506
2018-07-11T13:15:05.989Z,534
2018-07-11T13:16:07.688Z,556
2018-07-11T13:17:09.239Z,601
2018-07-11T13:18:10.857Z,590
2018-07-11T13:19:12.481Z,585
2018-07-11T13:20:14.106Z,596
2018-07-11T13:21:15.726Z,579
2018-07-11T13:22:17.352Z,551
2018-07-11T13:23:18.981Z,495
2018-07-11T13:24:20.605Z,455
2018-07-11T13:25:22.225Z,438
2018-07-11T13:26:23.855Z,466
2018-07-11T13:27:25.479Z,511
2018-07-11T13:28:27.103Z,568
2018-07-11T13:29:28.722Z,545
2018-07-11T13:30:30.349Z,483
2018-07-11T13:31:31.969Z,478
2018-07-11T13:32:33.597Z,500
2018-07-11T13:33:35.214Z,500
2018-07-11T13:34:36.841Z,483
2018-07-11T13:35:38.462Z,455
2018-07-11T13:36:40.086Z,444
2018-07-11T13:37:41.716Z,405
2018-07-11T13:38:43.333Z,376
2018-07-11T13:39:44.967Z,331
2018-07-11T13:40:46.588Z,315
2018-07-11T13:41:48.207Z,298
2018-07-11T13:42:49.834Z,292
2018-07-11T13:43:51.461Z,281
2018-07-11T13:44:53.088Z,258
2018-07-11T13:45:54.706Z,230
2018-07-11T13:46:56.325Z,219
2018-07-11T13:47:57.948Z,219
2018-07-11T13:48:59.567Z,230
2018-07-11T13:50:01.196Z,241
2018-07-11T13:51:02.819Z,253
2018-07-11T13:52:04.448Z,275
2018-07-11T13:53:06.072Z,281
2018-07-11T13:54:07.690Z,264
2018-07-11T13:55:09.341Z,247
2018-07-11T13:56:10.940Z,258
2018-07-11T13:57:12.566Z,264
2018-07-11T13:58:14.186Z,281
2018-07-11T13:59:15.811Z,292
2018-07-11T14:00:17.434Z,309
2018-07-11T14:01:19.054Z,298
2018-07-11T14:02:20.675Z,275
2018-07-11T14:03:22.296Z,264
2018-07-11T14:04:23.924Z,281
2018-07-11T14:05:25.557Z,298
2018-07-11T14:06:27.179Z,292
2018-07-11T14:07:28.810Z,309
2018-07-11T14:08:30.423Z,365
2018-07-11T14:09:32.063Z,348
2018-07-11T14:10:33.672Z,315
2018-07-11T14:11:35.300Z,331
2018-07-11T14:12:36.923Z,326
2018-07-11T14:13:38.552Z,354
2018-07-11T14:14:40.172Z,382